Time;durP1;ratioP1;P1;durP2;ratioP2;P2;SDS_P1;SDS_P2;PMS_P1;PMS_P2;Temp;Humidity;BMP_temperature;BMP_pressure;BME280_temperature;BME280_humidity;BME280_pressure;Samples;Min_cycle;Max_cycle;Signal;HPM_P1;HPM_P2
2022/04/09 00:00:56;;;;;;;11.50;2.58;;;6.90;99.90;;;;;;5054554;28;20213;-78
2022/04/09 00:03:21;;;;;;;5.68;2.20;;;6.90;99.90;;;;;;5054423;28;20171;-80
2022/04/09 00:05:47;;;;;;;7.85;2.58;;;6.90;99.90;;;;;;5054187;28;20164;-80
2022/04/09 00:08:14;;;;;;;13.18;2.50;;;6.60;99.90;;;;;;5053178;28;20230;-78
2022/04/09 00:10:39;;;;;;;8.35;2.55;;;6.60;99.90;;;;;;5054160;28;20688;-77
2022/04/09 00:13:05;;;;;;;7.35;2.38;;;6.50;99.90;;;;;;5054043;28;20168;-78
2022/04/09 00:15:30;;;;;;;8.50;2.50;;;6.40;99.90;;;;;;5054085;28;20197;-79
2022/04/09 00:17:56;;;;;;;12.77;2.58;;;6.50;99.90;;;;;;5053599;28;20221;-77
2022/04/09 00:20:22;;;;;;;7.15;2.40;;;6.50;99.90;;;;;;5053991;28;20258;-78
2022/04/09 00:22:47;;;;;;;8.13;2.67;;;6.50;99.90;;;;;;5053640;28;20174;-78
2022/04/09 00:25:21;;;;;;;16.27;2.88;;;6.50;99.90;;;;;;5053499;28;20229;-78
2022/04/09 00:27:47;;;;;;;6.35;2.17;;;6.40;99.90;;;;;;5053902;28;20516;-78
2022/04/09 00:30:13;;;;;;;6.75;1.98;;;6.30;99.90;;;;;;5052638;28;20173;-84
2022/04/09 00:32:38;;;;;;;11.43;2.58;;;6.30;99.90;;;;;;5053738;28;20167;-86
2022/04/09 00:35:05;;;;;;;10.80;2.47;;;6.10;99.90;;;;;;5053683;28;20202;-77
2022/04/09 00:37:32;;;;;;;3.80;2.10;;;5.90;99.90;;;;;;5054075;28;20163;-77
2022/04/09 00:39:57;;;;;;;5.38;2.22;;;5.90;99.90;;;;;;5053110;28;20230;-77
2022/04/09 00:42:23;;;;;;;3.13;1.55;;;5.80;99.90;;;;;;5052442;28;20210;-77
2022/04/09 00:44:50;;;;;;;11.63;1.85;;;5.80;99.90;;;;;;5053636;28;20217;-77
2022/04/09 00:47:16;;;;;;;18.35;2.50;;;5.90;99.90;;;;;;5052280;28;20190;-82
2022/04/09 00:49:41;;;;;;;13.98;2.58;;;6.00;99.90;;;;;;5053131;28;20193;-78
2022/04/09 00:52:09;;;;;;;9.00;2.30;;;5.90;99.90;;;;;;5053597;28;20167;-77
2022/04/09 00:54:38;;;;;;;12.20;2.00;;;5.90;99.90;;;;;;5053589;28;20253;-77
2022/04/09 00:57:05;;;;;;;9.38;2.55;;;5.90;99.90;;;;;;5053927;28;20171;-77
2022/04/09 00:59:34;;;;;;;10.77;2.38;;;5.90;99.90;;;;;;5053549;28;20210;-77
2022/04/09 01:02:00;;;;;;;8.73;1.98;;;5.90;99.90;;;;;;5053847;28;20174;-79
2022/04/09 01:04:27;;;;;;;7.90;2.75;;;6.00;99.90;;;;;;5054600;28;20171;-77
2022/04/09 01:06:55;;;;;;;7.03;2.03;;;6.10;99.90;;;;;;5069597;28;20279;-77
2022/04/09 01:09:21;;;;;;;7.90;1.65;;;6.20;99.90;;;;;;5069444;28;20179;-80
2022/04/09 01:11:46;;;;;;;13.93;2.33;;;6.20;99.90;;;;;;5066677;28;20173;-76
2022/04/09 01:14:13;;;;;;;7.18;1.55;;;6.20;99.90;;;;;;5059514;28;20183;-77
2022/04/09 01:16:39;;;;;;;12.00;3.35;;;6.30;99.90;;;;;;5054766;28;20163;-77
2022/04/09 01:19:05;;;;;;;4.70;1.60;;;6.30;99.90;;;;;;5053224;28;20219;-76
2022/04/09 01:21:31;;;;;;;8.60;2.25;;;6.10;99.90;;;;;;5052753;28;20164;-77
2022/04/09 01:23:57;;;;;;;10.45;1.60;;;6.20;99.90;;;;;;5052730;28;20208;-76
2022/04/09 01:26:23;;;;;;;3.08;1.50;;;6.20;99.90;;;;;;5052461;28;20242;-77
2022/04/09 01:28:49;;;;;;;8.25;1.58;;;6.10;99.90;;;;;;5052483;28;20187;-76
2022/04/09 01:31:16;;;;;;;4.53;1.35;;;6.20;99.90;;;;;;5052774;28;20191;-80
2022/04/09 01:33:42;;;;;;;8.02;1.95;;;6.00;99.90;;;;;;5052224;28;20175;-78
2022/04/09 01:36:09;;;;;;;14.23;2.92;;;6.00;99.90;;;;;;5052287;28;20163;-78
2022/04/09 01:38:35;;;;;;;3.40;1.58;;;6.10;99.90;;;;;;5052312;28;20607;-78
2022/04/09 01:41:01;;;;;;;19.52;2.22;;;6.10;99.90;;;;;;5052744;28;20198;-86
2022/04/09 01:43:27;;;;;;;7.07;2.13;;;6.10;99.90;;;;;;5052520;28;20581;-77
2022/04/09 01:45:52;;;;;;;8.05;2.30;;;6.10;99.90;;;;;;5052428;28;20657;-80
2022/04/09 01:48:18;;;;;;;3.00;1.67;;;6.00;99.90;;;;;;5052162;28;20206;-77
2022/04/09 01:50:44;;;;;;;7.97;2.00;;;6.10;99.90;;;;;;5052147;28;20167;-77
2022/04/09 01:53:10;;;;;;;6.68;1.83;;;6.10;99.90;;;;;;5052210;28;20163;-79
2022/04/09 01:55:37;;;;;;;14.48;2.17;;;6.10;99.90;;;;;;5052225;28;20171;-77
2022/04/09 01:58:02;;;;;;;15.85;2.92;;;6.00;99.90;;;;;;5052377;28;20195;-85
2022/04/09 02:00:28;;;;;;;4.75;2.42;;;5.80;99.90;;;;;;5052838;28;20167;-80
2022/04/09 02:02:53;;;;;;;7.47;1.88;;;5.90;99.90;;;;;;5056618;28;20166;-77
2022/04/09 02:05:19;;;;;;;6.53;1.60;;;5.90;99.90;;;;;;5056870;28;20644;-81
2022/04/09 02:07:47;;;;;;;11.73;2.17;;;5.90;99.90;;;;;;5056435;28;20203;-78
2022/04/09 02:10:15;;;;;;;7.95;2.25;;;6.00;99.90;;;;;;5056748;28;20166;-85
2022/04/09 02:12:41;;;;;;;1.65;1.13;;;5.90;99.90;;;;;;5056918;28;20170;-85
2022/04/09 02:15:10;;;;;;;11.27;1.80;;;5.90;99.90;;;;;;5056847;28;20159;-77
2022/04/09 02:17:40;;;;;;;6.75;1.83;;;5.90;99.90;;;;;;5056449;28;20170;-86
2022/04/09 02:20:08;;;;;;;14.30;2.03;;;5.80;99.90;;;;;;5056250;28;20274;-78
2022/04/09 02:22:42;;;;;;;5.55;1.50;;;5.80;99.90;;;;;;5054733;28;20175;-77
2022/04/09 02:25:10;;;;;;;4.15;2.00;;;5.90;99.90;;;;;;5061615;28;20231;-77
2022/04/09 02:27:36;;;;;;;12.82;2.53;;;5.90;99.90;;;;;;5073550;28;20178;-77
2022/04/09 02:30:07;;;;;;;4.03;1.75;;;5.90;99.90;;;;;;5076084;28;20171;-78
2022/04/09 02:32:44;;;;;;;9.70;2.03;;;5.80;99.90;;;;;;5075504;28;20691;-77
2022/04/09 02:35:11;;;;;;;9.35;1.95;;;5.90;99.90;;;;;;5056110;28;20216;-83
2022/04/09 02:37:37;;;;;;;8.52;2.38;;;5.90;99.90;;;;;;5056127;28;20167;-86
2022/04/09 02:40:03;;;;;;;13.25;1.98;;;6.00;99.90;;;;;;5056087;28;20177;-78
2022/04/09 02:42:29;;;;;;;9.52;2.35;;;5.90;99.90;;;;;;5056030;28;20163;-77
2022/04/09 02:44:55;;;;;;;8.52;2.42;;;5.90;99.90;;;;;;5055663;28;20178;-77
2022/04/09 02:47:21;;;;;;;9.32;2.15;;;5.80;99.90;;;;;;5055665;28;20690;-76
2022/04/09 02:49:47;;;;;;;6.50;2.42;;;5.90;99.90;;;;;;5054497;28;20187;-77
2022/04/09 02:52:12;;;;;;;7.30;1.92;;;6.00;99.90;;;;;;5056717;28;20163;-77
2022/04/09 02:54:46;;;;;;;2.92;2.17;;;6.00;99.90;;;;;;5065988;28;20174;-77
2022/04/09 02:57:12;;;;;;;7.05;2.38;;;5.90;99.90;;;;;;5063985;28;20660;-79
2022/04/09 02:59:37;;;;;;;5.65;3.15;;;5.80;99.90;;;;;;5064677;28;20215;-77
2022/04/09 03:02:03;;;;;;;6.43;2.17;;;5.90;99.90;;;;;;5055794;28;20645;-78
2022/04/09 03:04:29;;;;;;;10.32;2.28;;;5.90;99.90;;;;;;5055511;28;20652;-78
2022/04/09 03:06:56;;;;;;;6.57;2.15;;;5.80;99.90;;;;;;5055797;28;20277;-78
2022/04/09 03:09:22;;;;;;;10.77;2.85;;;5.60;99.90;;;;;;5055941;28;20175;-80
2022/04/09 03:11:48;;;;;;;7.90;2.70;;;5.50;99.90;;;;;;5053946;28;20172;-77
2022/04/09 03:14:13;;;;;;;18.25;2.40;;;5.50;99.90;;;;;;5056226;28;20159;-78
2022/04/09 03:16:39;;;;;;;13.25;2.85;;;5.50;99.90;;;;;;5055588;28;20170;-86
2022/04/09 03:19:05;;;;;;;3.45;2.13;;;5.50;99.90;;;;;;5055214;28;20264;-77
2022/04/09 03:21:30;;;;;;;6.53;2.08;;;5.50;99.90;;;;;;5055188;28;20163;-78
2022/04/09 03:23:56;;;;;;;10.90;2.45;;;5.50;99.90;;;;;;5055134;28;20174;-80
2022/04/09 03:26:21;;;;;;;6.72;2.05;;;5.50;99.90;;;;;;5054298;28;20213;-81
2022/04/09 03:28:47;;;;;;;9.82;2.78;;;5.50;99.90;;;;;;5054962;28;20197;-78
2022/04/09 03:31:12;;;;;;;5.85;2.33;;;5.60;99.90;;;;;;5055415;28;20242;-78
2022/04/09 03:33:38;;;;;;;6.03;2.20;;;5.30;99.90;;;;;;5054457;28;20561;-77
2022/04/09 03:36:05;;;;;;;13.68;2.83;;;5.20;99.90;;;;;;5054498;28;20178;-78
2022/04/09 03:38:31;;;;;;;10.15;2.40;;;5.30;99.90;;;;;;5054527;28;20298;-77
2022/04/09 03:40:56;;;;;;;11.57;2.47;;;5.40;99.90;;;;;;5055074;28;20198;-78
2022/04/09 03:43:22;;;;;;;6.00;2.03;;;5.40;99.90;;;;;;5055483;28;20171;-77
2022/04/09 03:45:48;;;;;;;6.20;2.25;;;5.50;99.90;;;;;;5055060;28;20174;-86
2022/04/09 03:48:13;;;;;;;9.05;2.15;;;5.60;99.90;;;;;;5056059;28;20199;-81
2022/04/09 03:50:39;;;;;;;8.38;2.28;;;5.40;99.90;;;;;;5055292;28;20171;-85
2022/04/09 03:53:04;;;;;;;20.92;2.72;;;5.30;99.90;;;;;;5055219;28;20168;-77
2022/04/09 03:55:30;;;;;;;10.30;2.45;;;5.30;99.90;;;;;;5055759;28;20209;-84
2022/04/09 03:57:56;;;;;;;7.32;2.63;;;5.20;99.90;;;;;;5055083;28;20183;-78
2022/04/09 04:00:23;;;;;;;4.93;2.10;;;5.20;99.90;;;;;;5055147;28;20155;-77
2022/04/09 04:02:49;;;;;;;21.48;2.20;;;5.40;99.90;;;;;;5056912;28;20175;-84
2022/04/09 04:05:15;;;;;;;9.93;2.47;;;5.50;99.90;;;;;;5055460;28;20222;-80
2022/04/09 04:07:45;;;;;;;13.75;2.25;;;5.60;99.90;;;;;;5053652;28;20531;-82
2022/04/09 04:10:12;;;;;;;9.18;1.98;;;5.60;99.90;;;;;;5054825;28;20179;-85
2022/04/09 04:12:37;;;;;;;9.32;2.58;;;5.60;99.90;;;;;;5053310;28;20199;-77
2022/04/09 04:15:04;;;;;;;11.45;2.67;;;5.70;99.90;;;;;;5054527;28;20178;-79
2022/04/09 04:17:43;;;;;;;10.13;2.83;;;5.70;99.90;;;;;;5057426;28;20182;-84
2022/04/09 04:20:10;;;;;;;14.95;2.22;;;5.80;99.90;;;;;;5070966;28;20167;-77
2022/04/09 04:22:37;;;;;;;8.10;2.38;;;5.90;99.90;;;;;;5068370;28;20243;-77
2022/04/09 04:25:04;;;;;;;18.83;2.25;;;5.90;99.90;;;;;;5065997;28;20175;-77
2022/04/09 04:27:30;;;;;;;13.75;2.72;;;5.70;99.90;;;;;;5066110;28;20171;-77
2022/04/09 04:30:00;;;;;;;13.10;2.20;;;5.80;99.90;;;;;;5067764;28;20236;-79
2022/04/09 04:32:26;;;;;;;7.95;2.42;;;5.80;99.90;;;;;;5063040;28;20174;-77
2022/04/09 04:34:52;;;;;;;9.65;2.60;;;5.80;99.90;;;;;;5064540;28;20194;-78
2022/04/09 04:37:17;;;;;;;7.75;1.80;;;5.70;99.90;;;;;;5064886;28;20639;-77
2022/04/09 04:39:43;;;;;;;7.45;1.90;;;5.70;99.90;;;;;;5069526;28;20226;-81
2022/04/09 04:42:08;;;;;;;12.77;2.05;;;5.70;99.90;;;;;;5078161;28;20179;-79
2022/04/09 04:44:34;;;;;;;2.53;1.67;;;5.50;99.90;;;;;;5078668;28;20171;-81
2022/04/09 04:47:00;;;;;;;13.05;3.25;;;5.40;99.90;;;;;;5077751;28;20206;-82
2022/04/09 04:49:25;;;;;;;11.27;2.80;;;5.40;99.90;;;;;;5077351;28;20234;-78
2022/04/09 04:51:51;;;;;;;10.63;2.88;;;5.40;99.90;;;;;;5078254;28;20160;-77
2022/04/09 04:54:16;;;;;;;8.18;2.60;;;5.40;99.90;;;;;;5077448;28;20239;-84
2022/04/09 04:56:42;;;;;;;12.35;2.55;;;5.50;99.90;;;;;;5073139;28;20151;-78
2022/04/09 04:59:08;;;;;;;7.78;2.30;;;5.60;99.90;;;;;;5076682;28;20195;-78
2022/04/09 05:01:34;;;;;;;6.82;2.25;;;5.30;99.90;;;;;;5072797;28;20254;-78
2022/04/09 05:04:01;;;;;;;13.55;2.97;;;5.20;99.90;;;;;;5076285;28;20178;-80
2022/04/09 05:06:26;;;;;;;6.90;2.13;;;5.20;99.90;;;;;;5057929;28;20179;-77
2022/04/09 05:08:52;;;;;;;8.32;3.22;;;5.20;99.90;;;;;;5053321;28;20194;-79
2022/04/09 05:11:17;;;;;;;20.02;3.42;;;5.30;99.90;;;;;;5053512;28;20262;-79
2022/04/09 05:13:43;;;;;;;9.27;3.35;;;5.30;99.90;;;;;;5057662;28;20225;-78
2022/04/09 05:16:09;;;;;;;19.35;3.13;;;5.40;99.90;;;;;;5063625;28;20167;-79
2022/04/09 05:18:35;;;;;;;16.95;2.78;;;5.40;99.90;;;;;;5069524;28;20221;-77
2022/04/09 05:21:01;;;;;;;16.38;2.65;;;5.40;99.90;;;;;;5068525;28;20163;-77
2022/04/09 05:23:27;;;;;;;15.57;2.60;;;5.40;99.90;;;;;;5068232;28;20230;-76
2022/04/09 05:25:52;;;;;;;8.75;2.10;;;5.40;99.90;;;;;;5068681;28;20219;-76
2022/04/09 05:28:18;;;;;;;13.35;2.50;;;5.40;99.90;;;;;;5056312;28;20215;-78
2022/04/09 05:30:44;;;;;;;12.63;2.78;;;5.40;99.90;;;;;;5053644;28;20209;-81
2022/04/09 05:33:09;;;;;;;20.20;3.22;;;5.40;99.90;;;;;;5054098;28;20690;-86
2022/04/09 05:35:35;;;;;;;16.95;2.28;;;5.50;99.90;;;;;;5052950;28;20262;-87
2022/04/09 05:38:03;;;;;;;25.13;2.58;;;5.50;99.90;;;;;;5053259;28;20261;-84
2022/04/09 05:40:29;;;;;;;12.70;3.00;;;5.60;99.90;;;;;;5053412;28;20171;-78
2022/04/09 05:42:55;;;;;;;15.65;2.83;;;5.80;99.90;;;;;;5052448;28;20738;-77
2022/04/09 05:45:21;;;;;;;13.70;2.85;;;5.90;99.90;;;;;;5052700;28;20178;-77
2022/04/09 05:47:47;;;;;;;11.98;3.25;;;5.80;99.90;;;;;;5052392;28;20183;-78
2022/04/09 05:50:14;;;;;;;15.82;3.20;;;5.80;99.90;;;;;;5052640;28;20265;-84
2022/04/09 05:52:40;;;;;;;11.95;2.97;;;5.80;99.90;;;;;;5051600;28;20167;-77
2022/04/09 05:55:07;;;;;;;12.63;2.80;;;5.70;99.90;;;;;;5051355;28;20577;-77
2022/04/09 05:57:33;;;;;;;9.43;2.65;;;5.80;99.90;;;;;;5052710;28;20538;-88
2022/04/09 05:59:59;;;;;;;16.15;3.08;;;5.80;99.90;;;;;;5052517;28;20245;-77
2022/04/09 06:02:25;;;;;;;8.40;2.75;;;5.90;99.90;;;;;;5052043;28;20171;-83
2022/04/09 06:04:50;;;;;;;15.05;3.08;;;6.10;99.90;;;;;;5052016;28;20265;-78
2022/04/09 06:07:17;;;;;;;19.38;3.58;;;6.10;99.90;;;;;;5051982;28;20166;-80
2022/04/09 06:09:43;;;;;;;5.80;2.33;;;6.10;99.90;;;;;;5052082;28;20274;-78
2022/04/09 06:12:10;;;;;;;14.65;3.17;;;6.40;99.90;;;;;;5052483;28;20316;-82
2022/04/09 06:14:36;;;;;;;12.23;2.60;;;6.50;99.90;;;;;;5047896;28;20190;-81
2022/04/09 06:17:02;;;;;;;11.65;3.22;;;6.40;99.90;;;;;;5050289;28;20167;-83
2022/04/09 06:19:29;;;;;;;4.70;1.90;;;6.20;99.90;;;;;;5051399;28;20336;-79
2022/04/09 06:21:55;;;;;;;16.38;3.97;;;6.40;99.90;;;;;;5051098;28;20617;-80
2022/04/09 06:24:21;;;;;;;7.78;2.60;;;6.50;99.90;;;;;;5051687;28;20254;-77
2022/04/09 06:26:46;;;;;;;18.98;3.95;;;6.60;99.90;;;;;;5051944;28;20243;-76
2022/04/09 06:29:12;;;;;;;20.15;4.20;;;6.60;99.90;;;;;;5052225;28;20203;-81
2022/04/09 06:31:38;;;;;;;7.03;2.83;;;6.70;99.90;;;;;;5052223;28;20182;-79
2022/04/09 06:34:03;;;;;;;17.13;2.90;;;6.70;99.90;;;;;;5052216;28;20221;-86
2022/04/09 06:36:29;;;;;;;21.60;4.25;;;6.70;99.90;;;;;;5052640;28;20660;-77
2022/04/09 06:38:55;;;;;;;10.90;3.30;;;6.80;99.90;;;;;;5052810;28;20407;-79
2022/04/09 06:41:20;;;;;;;15.07;2.70;;;6.80;99.90;;;;;;5051962;28;20194;-79
2022/04/09 06:43:47;;;;;;;16.27;2.78;;;6.80;99.90;;;;;;5052304;28;20258;-80
2022/04/09 06:46:13;;;;;;;17.00;2.22;;;6.90;99.90;;;;;;5052081;28;20174;-79
2022/04/09 06:48:39;;;;;;;7.38;2.63;;;6.90;99.90;;;;;;5054697;28;20193;-79
2022/04/09 06:51:04;;;;;;;4.45;2.63;;;6.90;99.90;;;;;;5055900;28;20245;-86
2022/04/09 06:53:30;;;;;;;22.42;3.90;;;7.00;99.90;;;;;;5056469;28;20171;-85
2022/04/09 06:55:55;;;;;;;16.33;4.03;;;7.10;99.90;;;;;;5054122;28;20229;-82
2022/04/09 06:58:21;;;;;;;10.80;2.45;;;7.10;99.90;;;;;;5055182;28;20717;-79
2022/04/09 07:00:47;;;;;;;10.35;2.65;;;7.10;99.90;;;;;;5054637;28;20650;-86
2022/04/09 07:03:13;;;;;;;4.90;1.70;;;7.30;99.90;;;;;;5056125;28;20175;-86
2022/04/09 07:05:42;;;;;;;5.80;2.50;;;7.50;99.90;;;;;;5056076;28;20217;-81
2022/04/09 07:08:08;;;;;;;16.48;3.13;;;7.50;99.90;;;;;;5055344;28;20187;-79
2022/04/09 07:10:37;;;;;;;11.65;2.22;;;7.50;99.90;;;;;;5055753;28;20176;-85
2022/04/09 07:13:03;;;;;;;12.68;2.33;;;7.50;99.90;;;;;;5054761;28;20637;-78
2022/04/09 07:15:29;;;;;;;11.95;2.65;;;7.80;99.90;;;;;;5055840;28;20241;-86
2022/04/09 07:17:55;;;;;;;9.02;2.38;;;7.80;99.90;;;;;;5055464;28;20195;-86
2022/04/09 07:20:21;;;;;;;8.65;2.00;;;7.90;99.90;;;;;;5056248;28;20229;-85
2022/04/09 07:22:47;;;;;;;6.30;2.50;;;8.10;99.90;;;;;;5055936;28;20171;-87
2022/04/09 07:25:13;;;;;;;12.00;1.92;;;8.00;99.90;;;;;;5055955;28;20618;-82
2022/04/09 07:27:39;;;;;;;9.30;2.28;;;7.90;99.90;;;;;;5055369;28;20262;-86
2022/04/09 07:30:07;;;;;;;13.48;2.33;;;7.90;99.90;;;;;;5055552;28;20672;-77
2022/04/09 07:32:33;;;;;;;11.07;2.28;;;8.00;99.90;;;;;;5055285;28;20168;-85
2022/04/09 07:34:59;;;;;;;10.48;2.05;;;8.10;99.90;;;;;;5055698;28;20213;-86
2022/04/09 07:37:24;;;;;;;16.90;3.47;;;8.30;99.90;;;;;;5054237;28;20224;-85
2022/04/09 07:39:50;;;;;;;7.05;2.53;;;8.40;99.90;;;;;;5055824;28;20207;-87
2022/04/09 07:42:15;;;;;;;12.48;2.78;;;8.30;99.90;;;;;;5054771;28;20186;-81
2022/04/09 07:44:41;;;;;;;11.02;2.78;;;8.40;99.90;;;;;;5053274;28;20218;-87
2022/04/09 07:47:07;;;;;;;7.60;2.63;;;8.60;99.90;;;;;;5054815;28;20194;-84
2022/04/09 07:49:32;;;;;;;18.48;3.13;;;8.60;99.90;;;;;;5054480;28;20274;-85
2022/04/09 07:51:58;;;;;;;13.48;3.15;;;8.70;99.90;;;;;;5055603;28;20170;-82
2022/04/09 07:54:24;;;;;;;10.80;3.88;;;8.70;99.90;;;;;;5053509;28;20179;-82
2022/04/09 07:56:50;;;;;;;9.23;3.28;;;8.70;99.90;;;;;;5054279;28;20170;-78
2022/04/09 07:59:16;;;;;;;7.90;3.38;;;8.90;99.90;;;;;;5053244;28;20215;-78
2022/04/09 08:01:41;;;;;;;24.50;3.17;;;8.90;99.90;;;;;;5054425;28;20170;-79
2022/04/09 08:04:07;;;;;;;6.70;4.03;;;8.90;99.90;;;;;;5054689;28;20179;-77
2022/04/09 08:06:32;;;;;;;15.18;4.25;;;8.90;99.90;;;;;;5054678;28;20169;-79
2022/04/09 08:08:58;;;;;;;7.03;2.85;;;8.90;99.90;;;;;;5054301;28;20187;-80
2022/04/09 08:11:24;;;;;;;9.70;2.60;;;8.90;99.90;;;;;;5054396;28;20171;-83
2022/04/09 08:13:50;;;;;;;5.65;3.00;;;8.90;99.90;;;;;;5054769;28;20179;-78
2022/04/09 08:16:15;;;;;;;4.93;2.33;;;9.10;99.90;;;;;;5054139;28;20225;-79
2022/04/09 08:18:41;;;;;;;13.30;3.50;;;9.20;99.90;;;;;;5054601;28;20209;-83
2022/04/09 08:21:06;;;;;;;10.80;2.85;;;9.30;99.90;;;;;;5052188;28;20167;-78
2022/04/09 08:23:32;;;;;;;9.43;2.30;;;9.60;99.90;;;;;;5053493;28;20167;-82
2022/04/09 08:25:58;;;;;;;6.78;1.90;;;9.60;99.90;;;;;;5054118;28;20167;-81
2022/04/09 08:28:26;;;;;;;13.95;1.55;;;9.60;99.90;;;;;;5054206;28;20582;-84
2022/04/09 08:30:52;;;;;;;9.65;1.50;;;9.70;99.90;;;;;;5054332;28;20159;-81
2022/04/09 08:33:18;;;;;;;10.25;1.85;;;9.90;99.90;;;;;;5054373;28;20297;-83
2022/04/09 08:35:43;;;;;;;4.30;2.20;;;9.90;99.90;;;;;;5054013;28;20163;-83
2022/04/09 08:38:10;;;;;;;7.75;1.98;;;9.90;99.90;;;;;;5053685;28;20237;-78
2022/04/09 08:40:37;;;;;;;14.38;1.95;;;9.80;99.90;;;;;;5054418;28;20178;-79
2022/04/09 08:43:04;;;;;;;11.05;1.90;;;9.80;99.90;;;;;;5053771;28;20258;-78
2022/04/09 08:45:40;;;;;;;8.90;1.92;;;10.00;99.90;;;;;;5052531;28;20170;-81
2022/04/09 08:48:07;;;;;;;4.80;2.10;;;10.10;99.90;;;;;;5052301;28;20618;-78
2022/04/09 08:50:33;;;;;;;6.75;1.90;;;10.00;99.90;;;;;;5053572;28;20163;-78
2022/04/09 08:53:06;;;;;;;4.32;1.70;;;9.90;99.90;;;;;;5053881;28;20250;-79
2022/04/09 08:55:35;;;;;;;10.00;2.88;;;10.00;99.90;;;;;;5053379;28;20199;-84
2022/04/09 08:58:01;;;;;;;15.00;2.70;;;10.20;99.90;;;;;;5051992;28;20195;-80
2022/04/09 09:00:27;;;;;;;4.88;1.65;;;10.30;99.90;;;;;;5053580;28;20198;-80
2022/04/09 09:02:55;;;;;;;3.92;2.15;;;10.40;99.90;;;;;;5054025;28;20187;-85
2022/04/09 09:05:37;;;;;;;4.53;1.70;;;10.70;99.90;;;;;;5054022;28;20206;-84
2022/04/09 09:08:04;;;;;;;6.57;1.80;;;10.70;99.90;;;;;;5053756;28;20199;-79
2022/04/09 09:10:30;;;;;;;3.67;1.90;;;10.60;99.90;;;;;;5052877;28;20255;-82
2022/04/09 09:13:25;;;;;;;6.25;1.73;;;10.60;99.90;;;;;;5053522;28;20703;-78
2022/04/09 09:15:52;;;;;;;4.32;2.15;;;10.50;99.90;;;;;;5039870;28;20628;-79
2022/04/09 09:18:25;;;;;;;10.82;2.63;;;10.80;99.90;;;;;;5053383;28;20199;-84
2022/04/09 09:20:52;;;;;;;9.50;2.63;;;11.10;99.90;;;;;;5052684;28;20228;-83
2022/04/09 09:23:21;;;;;;;9.00;2.42;;;11.10;99.90;;;;;;5052652;28;20624;-80
2022/04/09 09:25:49;;;;;;;3.92;2.42;;;11.20;99.90;;;;;;5053986;28;20183;-81
2022/04/09 09:28:25;;;;;;;4.07;2.45;;;11.30;99.90;;;;;;5053979;28;20175;-80
2022/04/09 09:30:51;;;;;;;5.20;2.20;;;11.30;99.90;;;;;;5054101;28;20185;-79
2022/04/09 09:33:17;;;;;;;8.27;1.95;;;11.10;99.90;;;;;;5057111;28;20167;-80
2022/04/09 09:35:54;;;;;;;8.73;2.70;;;11.20;99.90;;;;;;5066712;28;20172;-84
2022/04/09 09:38:23;;;;;;;9.40;2.22;;;11.50;99.90;;;;;;5068656;28;20190;-86
2022/04/09 09:40:50;;;;;;;5.22;2.00;;;11.30;99.90;;;;;;5068757;28;20163;-85
2022/04/09 09:43:16;;;;;;;10.77;2.15;;;11.30;99.90;;;;;;5057690;28;20167;-80
2022/04/09 09:45:43;;;;;;;6.25;1.63;;;11.20;99.90;;;;;;5055913;28;20163;-81
2022/04/09 09:48:35;;;;;;;10.07;2.00;;;11.40;99.90;;;;;;5054740;28;20655;-83
2022/04/09 09:51:01;;;;;;;3.33;1.60;;;11.90;99.90;;;;;;5053502;28;20624;-87
2022/04/09 09:53:34;;;;;;;9.75;2.47;;;12.30;99.90;;;;;;5055391;28;20171;-78
2022/04/09 09:56:01;;;;;;;7.15;2.35;;;12.00;99.90;;;;;;5052097;28;20175;-85
2022/04/09 09:58:29;;;;;;;4.25;2.20;;;11.90;99.90;;;;;;5053349;28;20603;-80
2022/04/09 10:00:56;;;;;;;4.90;1.73;;;11.70;99.90;;;;;;5053309;28;20163;-78
2022/04/09 10:03:23;;;;;;;7.15;2.47;;;11.70;99.90;;;;;;5053478;28;20182;-79
2022/04/09 10:05:50;;;;;;;3.78;1.70;;;12.00;99.90;;;;;;5052432;28;20175;-87
2022/04/09 10:08:17;;;;;;;4.13;1.60;;;12.20;99.90;;;;;;5053291;28;20189;-87
2022/04/09 10:10:46;;;;;;;3.50;1.65;;;12.30;99.90;;;;;;5053916;28;20159;-85
2022/04/09 10:13:15;;;;;;;9.88;2.47;;;12.20;99.90;;;;;;5052025;28;20174;-80
2022/04/09 10:15:46;;;;;;;4.40;1.77;;;12.20;99.90;;;;;;5053423;28;20634;-80
2022/04/09 10:18:13;;;;;;;5.18;2.33;;;12.00;99.90;;;;;;5052861;28;20186;-87
2022/04/09 10:20:39;;;;;;;6.63;2.03;;;11.70;99.90;;;;;;5052817;28;20679;-80
2022/04/09 10:23:09;;;;;;;5.50;1.95;;;11.30;99.90;;;;;;5058007;28;20199;-86
2022/04/09 10:25:39;;;;;;;3.42;1.60;;;11.10;99.90;;;;;;5058100;28;20171;-85
2022/04/09 10:28:39;;;;;;;8.60;2.00;;;10.90;99.90;;;;;;5060363;28;20308;-86
2022/04/09 10:31:22;;;;;;;16.48;2.60;;;10.50;99.90;;;;;;5057326;28;20556;-87
2022/04/09 10:33:56;;;;;;;7.55;2.63;;;10.40;99.90;;;;;;5056776;28;20186;-87
2022/04/09 10:36:40;;;;;;;14.68;2.40;;;10.40;99.90;;;;;;5057493;28;20561;-87
2022/04/09 10:39:26;;;;;;;3.92;2.55;;;10.30;99.90;;;;;;5056163;28;20233;-80
2022/04/09 10:41:58;;;;;;;2.75;2.10;;;10.50;99.90;;;;;;5056439;28;20175;-81
2022/04/09 10:44:42;;;;;;;2.75;1.40;;;10.60;99.90;;;;;;5056174;28;20246;-80
2022/04/09 10:47:08;;;;;;;5.38;2.58;;;10.80;99.90;;;;;;5058963;28;20248;-78
2022/04/09 10:49:33;;;;;;;4.00;2.40;;;10.90;99.90;;;;;;5066384;28;20571;-83
2022/04/09 10:52:03;;;;;;;7.63;2.72;;;11.00;99.90;;;;;;5069181;28;20167;-81
2022/04/09 10:54:29;;;;;;;4.70;1.70;;;11.10;99.90;;;;;;5078319;28;20163;-80
2022/04/09 10:57:05;;;;;;;6.15;1.88;;;11.20;99.90;;;;;;5066154;28;20194;-86
2022/04/09 10:59:32;;;;;;;11.20;2.65;;;11.30;99.90;;;;;;5056374;28;20293;-79
2022/04/09 11:01:58;;;;;;;13.00;3.28;;;11.40;99.90;;;;;;5056397;28;20187;-81
2022/04/09 11:04:34;;;;;;;7.22;4.30;;;11.50;99.90;;;;;;5056436;28;20524;-80
2022/04/09 11:07:12;;;;;;;4.93;2.50;;;11.30;99.90;;;;;;5055926;28;20509;-81
2022/04/09 11:10:04;;;;;;;4.65;1.80;;;11.20;99.90;;;;;;5057308;28;20198;-81
2022/04/09 11:12:38;;;;;;;5.85;1.75;;;11.00;99.90;;;;;;5056368;28;20531;-83
2022/04/09 11:15:11;;;;;;;3.53;2.10;;;10.90;99.90;;;;;;5056450;28;20635;-84
2022/04/09 11:17:43;;;;;;;2.03;1.70;;;10.70;99.90;;;;;;5055844;28;20167;-81
2022/04/09 11:20:13;;;;;;;7.70;1.80;;;10.50;99.90;;;;;;5056777;28;20199;-85
2022/04/09 11:22:44;;;;;;;9.98;2.47;;;10.60;99.90;;;;;;5054324;28;20171;-81
2022/04/09 11:25:26;;;;;;;4.32;2.20;;;10.70;99.90;;;;;;5056848;28;20691;-81
2022/04/09 11:28:03;;;;;;;9.13;2.78;;;10.90;99.90;;;;;;5056009;28;20175;-82
2022/04/09 11:30:29;;;;;;;4.57;2.05;;;11.10;99.90;;;;;;5056139;28;20163;-85
2022/04/09 11:32:55;;;;;;;3.33;1.00;;;11.20;99.90;;;;;;5057335;28;20229;-85
2022/04/09 11:35:24;;;;;;;3.35;1.20;;;10.90;99.90;;;;;;5054733;28;20163;-85
2022/04/09 11:37:51;;;;;;;3.80;1.50;;;10.80;99.90;;;;;;5055396;28;20159;-79
2022/04/09 11:40:20;;;;;;;2.97;1.35;;;10.90;99.90;;;;;;5055237;28;20199;-79
2022/04/09 11:42:51;;;;;;;4.97;1.13;;;10.80;99.90;;;;;;5055594;28;20163;-80
2022/04/09 11:45:21;;;;;;;4.53;2.95;;;10.90;99.90;;;;;;5055599;28;20170;-86
2022/04/09 11:47:47;;;;;;;7.32;2.80;;;10.80;99.90;;;;;;5055697;28;20528;-87
2022/04/09 11:50:13;;;;;;;3.45;1.70;;;10.70;99.90;;;;;;5055625;28;20198;-79
2022/04/09 11:52:40;;;;;;;3.53;1.63;;;11.00;99.90;;;;;;5055759;28;20175;-79
2022/04/09 11:55:10;;;;;;;3.70;1.55;;;11.20;99.90;;;;;;5055816;28;20263;-83
2022/04/09 11:57:36;;;;;;;4.22;1.63;;;11.60;99.90;;;;;;5054744;28;20167;-81
2022/04/09 12:00:05;;;;;;;10.25;1.60;;;11.80;99.90;;;;;;5053362;28;20214;-80
2022/04/09 12:02:31;;;;;;;5.50;1.65;;;11.90;99.90;;;;;;5052813;28;20168;-81
2022/04/09 12:04:57;;;;;;;2.22;1.10;;;11.90;99.90;;;;;;5054704;28;20186;-81
2022/04/09 12:07:28;;;;;;;3.25;1.08;;;11.50;99.90;;;;;;5056672;28;20174;-84
2022/04/09 12:09:54;;;;;;;2.05;0.88;;;11.50;99.90;;;;;;5055009;28;20229;-80
2022/04/09 12:12:20;;;;;;;2.40;0.82;;;11.50;99.90;;;;;;5052984;28;20159;-83
2022/04/09 12:14:54;;;;;;;2.25;0.77;;;11.30;99.90;;;;;;5052885;28;20179;-81
2022/04/09 12:17:22;;;;;;;8.50;0.90;;;11.10;99.90;;;;;;5054499;28;20182;-81
2022/04/09 12:19:50;;;;;;;3.30;0.88;;;10.90;99.90;;;;;;5054103;28;20206;-81
2022/04/09 12:22:22;;;;;;;2.10;0.60;;;10.90;99.90;;;;;;5058615;28;20547;-81
2022/04/09 12:25:04;;;;;;;5.00;1.83;;;10.90;99.90;;;;;;5062670;28;20186;-80
2022/04/09 12:28:04;;;;;;;2.30;1.27;;;11.00;99.90;;;;;;5066840;28;20221;-81
2022/04/09 12:30:42;;;;;;;1.25;0.85;;;11.40;99.90;;;;;;5069482;28;20174;-80
2022/04/09 12:33:26;;;;;;;1.55;0.88;;;11.70;99.90;;;;;;5075183;28;20179;-80
2022/04/09 12:36:05;;;;;;;1.65;0.80;;;12.00;99.90;;;;;;5061388;28;20671;-82
2022/04/09 12:38:36;;;;;;;2.83;1.00;;;11.70;99.90;;;;;;5052042;28;20210;-81
2022/04/09 12:41:04;;;;;;;1.13;0.95;;;11.50;99.90;;;;;;5053384;28;20163;-81
2022/04/09 12:43:41;;;;;;;2.75;1.50;;;11.20;99.90;;;;;;5052351;28;20262;-81
2022/04/09 12:46:11;;;;;;;2.15;1.20;;;11.20;99.90;;;;;;5053134;28;20167;-80
2022/04/09 12:48:49;;;;;;;5.63;1.10;;;11.40;99.90;;;;;;5052020;28;20213;-80
2022/04/09 12:51:18;;;;;;;2.35;0.95;;;11.70;99.90;;;;;;5053543;28;20171;-80
2022/04/09 12:53:48;;;;;;;3.30;0.88;;;11.80;99.90;;;;;;5053259;28;20187;-78